Time;durP1;ratioP1;P1;durP2;ratioP2;P2;SDS_P1;SDS_P2;PMS_P1;PMS_P2;Temp;Humidity;BMP_temperature;BMP_pressure;BME280_temperature;BME280_humidity;BME280_pressure;Samples;Min_cycle;Max_cycle;Signal;HPM_P1;HPM_P2
2023/01/22 10:12:40;;;;;;;43.63;40.07;;;2.30;99.90;;;;;;5085936;27;20613;-79
2023/01/22 10:15:09;;;;;;;42.00;38.50;;;3.10;99.90;;;;;;5085968;28;20442;-79
2023/01/22 10:17:36;;;;;;;43.60;39.50;;;3.30;99.90;;;;;;5085562;28;20442;-78
2023/01/22 10:20:07;;;;;;;41.13;37.97;;;3.40;99.90;;;;;;5085725;28;20548;-78
2023/01/22 10:22:33;;;;;;;43.77;40.17;;;3.40;99.90;;;;;;5085465;28;20454;-78
2023/01/22 10:25:00;;;;;;;41.93;38.50;;;3.40;99.90;;;;;;5085296;28;20447;-77
2023/01/22 10:27:34;;;;;;;43.40;39.90;;;3.60;99.90;;;;;;5085203;28;20458;-76
2023/01/22 10:30:15;;;;;;;41.70;38.20;;;3.50;99.90;;;;;;5085439;28;20936;-76
2023/01/22 10:32:42;;;;;;;40.23;36.83;;;3.50;99.90;;;;;;5085415;28;20442;-77
2023/01/22 10:35:17;;;;;;;40.70;37.30;;;3.70;99.90;;;;;;5085437;28;20474;-75
2023/01/22 10:37:45;;;;;;;40.93;37.57;;;3.70;99.90;;;;;;5085193;28;20449;-76
2023/01/22 10:40:22;;;;;;;40.03;37.03;;;3.70;99.90;;;;;;5085032;28;20454;-77
2023/01/22 10:43:01;;;;;;;40.53;37.40;;;3.70;99.90;;;;;;5084982;28;20454;-77
2023/01/22 10:45:29;;;;;;;42.83;39.33;;;3.60;99.90;;;;;;5084928;28;20450;-79
2023/01/22 10:48:19;;;;;;;44.03;40.33;;;3.50;99.90;;;;;;5085112;28;20450;-78
2023/01/22 10:50:57;;;;;;;42.47;39.17;;;3.50;99.90;;;;;;5079220;28;20853;-79
2023/01/22 10:53:30;;;;;;;40.43;36.90;;;3.50;99.90;;;;;;5085221;28;20453;-81
2023/01/22 10:55:59;;;;;;;40.83;37.73;;;3.60;99.90;;;;;;5085199;28;20446;-77
2023/01/22 10:58:31;;;;;;;40.30;37.00;;;3.70;99.90;;;;;;5085159;28;20907;-78
2023/01/22 11:01:01;;;;;;;39.10;35.80;;;3.70;99.90;;;;;;5084719;28;20454;-80
2023/01/22 11:03:34;;;;;;;39.03;35.93;;;3.90;99.90;;;;;;5084710;28;20450;-81
2023/01/22 11:06:12;;;;;;;38.17;35.40;;;3.90;99.90;;;;;;5084693;28;20474;-80
2023/01/22 11:08:48;;;;;;;39.17;35.77;;;3.80;99.90;;;;;;5085072;28;20453;-80
2023/01/22 11:11:17;;;;;;;39.63;36.60;;;3.90;99.90;;;;;;5084451;28;20501;-78
2023/01/22 11:13:52;;;;;;;39.40;36.40;;;4.00;99.90;;;;;;5070401;28;20455;-78
2023/01/22 11:16:22;;;;;;;40.17;37.17;;;3.80;99.90;;;;;;5071283;28;20450;-79
2023/01/22 11:18:55;;;;;;;41.07;37.97;;;3.60;99.90;;;;;;5070889;28;20458;-77
2023/01/22 11:21:27;;;;;;;39.43;36.37;;;3.40;99.90;;;;;;5071348;28;20435;-77
2023/01/22 11:24:00;;;;;;;40.87;37.73;;;3.60;99.90;;;;;;5071148;28;20447;-77
2023/01/22 11:27:00;;;;;;;40.30;37.27;;;3.60;99.90;;;;;;5070642;28;20821;-79
2023/01/22 11:29:43;;;;;;;40.40;37.50;;;3.80;99.90;;;;;;5070083;28;20470;-78
2023/01/22 11:32:31;;;;;;;42.80;39.40;;;3.90;99.90;;;;;;5069649;28;21017;-79
2023/01/22 11:35:11;;;;;;;40.57;37.23;;;4.00;99.90;;;;;;5069487;28;20455;-79
2023/01/22 11:37:51;;;;;;;42.00;38.33;;;4.00;99.90;;;;;;5070165;28;20466;-82
2023/01/22 11:40:25;;;;;;;40.67;37.63;;;4.00;99.90;;;;;;5069364;28;20793;-81
2023/01/22 11:43:17;;;;;;;39.97;37.07;;;4.00;99.90;;;;;;5069980;28;20462;-79
2023/01/22 11:46:19;;;;;;;40.20;37.10;;;3.80;99.90;;;;;;5067153;28;20838;-78
2023/01/22 11:48:58;;;;;;;39.27;36.30;;;3.70;99.90;;;;;;5069431;28;20451;-78
2023/01/22 11:51:32;;;;;;;38.67;35.20;;;3.70;99.90;;;;;;5069148;28;20486;-77
2023/01/22 11:54:12;;;;;;;38.80;35.80;;;3.70;99.90;;;;;;5069083;28;20470;-77
2023/01/22 11:56:54;;;;;;;38.83;35.70;;;3.80;99.90;;;;;;5069147;28;20450;-77
2023/01/22 11:59:35;;;;;;;37.10;34.37;;;3.90;99.90;;;;;;5069276;28;20447;-76
2023/01/22 12:02:22;;;;;;;38.07;34.83;;;4.00;99.90;;;;;;5068729;28;20481;-77
2023/01/22 12:05:03;;;;;;;38.40;35.07;;;4.00;99.90;;;;;;5068789;28;20486;-76
2023/01/22 12:07:51;;;;;;;38.83;35.53;;;3.90;99.90;;;;;;5068948;28;20530;-74
2023/01/22 12:10:36;;;;;;;37.93;34.60;;;4.00;99.90;;;;;;5068683;28;20890;-75
2023/01/22 12:13:10;;;;;;;37.73;34.73;;;4.10;99.90;;;;;;5068791;28;20453;-76
2023/01/22 12:15:44;;;;;;;39.07;35.63;;;4.10;99.90;;;;;;5068485;28;20450;-77
2023/01/22 12:18:42;;;;;;;36.90;34.03;;;3.90;99.90;;;;;;5069197;28;20470;-75
2023/01/22 12:21:19;;;;;;;35.93;33.13;;;3.90;99.90;;;;;;5068836;28;20814;-75
2023/01/22 12:23:50;;;;;;;37.27;34.07;;;3.90;99.90;;;;;;5067169;28;20545;-75
2023/01/22 12:26:22;;;;;;;37.27;34.37;;;4.10;99.90;;;;;;5068286;28;20486;-74
2023/01/22 12:28:53;;;;;;;36.93;34.00;;;3.90;99.90;;;;;;5067917;28;20501;-74
2023/01/22 12:31:25;;;;;;;35.17;32.53;;;4.10;99.90;;;;;;5068677;28;20487;-74
2023/01/22 12:33:52;;;;;;;36.57;33.43;;;4.00;99.90;;;;;;5068076;28;20450;-74
2023/01/22 12:36:23;;;;;;;35.93;32.90;;;4.20;99.90;;;;;;5067823;28;20455;-74
2023/01/22 12:38:54;;;;;;;34.47;31.60;;;4.00;99.90;;;;;;5068627;28;20458;-75
2023/01/22 12:41:34;;;;;;;33.67;31.10;;;4.00;99.90;;;;;;5068805;28;20464;-74
2023/01/22 12:44:07;;;;;;;33.93;31.30;;;3.90;99.90;;;;;;5068621;28;21154;-75
2023/01/22 12:46:50;;;;;;;33.33;30.63;;;3.80;99.90;;;;;;5068356;28;20558;-74
2023/01/22 12:49:17;;;;;;;33.47;30.53;;;3.90;99.90;;;;;;5068069;28;20455;-74
2023/01/22 12:51:47;;;;;;;34.67;31.77;;;3.90;99.90;;;;;;5068156;28;20478;-75
2023/01/22 12:54:22;;;;;;;33.53;30.80;;;4.00;99.90;;;;;;5068089;28;20451;-75
2023/01/22 12:56:50;;;;;;;32.80;30.30;;;4.00;99.90;;;;;;5067934;28;20458;-74
2023/01/22 12:59:41;;;;;;;34.97;31.77;;;4.10;99.90;;;;;;5068565;28;20663;-75
2023/01/22 13:02:39;;;;;;;32.80;30.20;;;4.10;99.90;;;;;;5067742;28;20539;-74
2023/01/22 13:05:12;;;;;;;33.77;30.97;;;4.20;99.90;;;;;;5067379;28;20486;-74
2023/01/22 13:07:40;;;;;;;34.27;31.23;;;4.10;99.90;;;;;;5067884;28;20481;-74
2023/01/22 13:10:23;;;;;;;30.20;27.73;;;4.20;99.90;;;;;;5067828;28;20842;-74
2023/01/22 13:12:53;;;;;;;31.07;28.53;;;4.40;99.90;;;;;;5072700;28;20510;-74
2023/01/22 13:15:23;;;;;;;30.23;27.70;;;4.50;99.90;;;;;;5087688;28;20819;-73
2023/01/22 13:17:57;;;;;;;31.27;28.63;;;4.50;99.90;;;;;;5087297;28;20473;-75
2023/01/22 13:20:25;;;;;;;30.90;28.03;;;4.60;99.90;;;;;;5087601;28;20493;-74
2023/01/22 13:22:54;;;;;;;31.10;28.70;;;4.50;99.90;;;;;;5088138;28;20442;-74
2023/01/22 13:25:24;;;;;;;29.60;26.97;;;4.30;99.90;;;;;;5087124;28;20446;-73
2023/01/22 13:27:51;;;;;;;31.30;28.30;;;4.50;99.90;;;;;;5088069;28;20937;-74
2023/01/22 13:30:21;;;;;;;31.80;29.37;;;4.40;99.90;;;;;;5088044;28;20937;-74
2023/01/22 13:32:48;;;;;;;29.83;27.43;;;4.50;99.90;;;;;;5088116;28;20843;-73
2023/01/22 13:35:16;;;;;;;29.00;26.70;;;4.60;99.90;;;;;;5087277;28;20446;-74
2023/01/22 13:37:44;;;;;;;29.67;27.33;;;4.40;99.90;;;;;;5087812;28;20820;-74
2023/01/22 13:40:24;;;;;;;26.83;24.90;;;4.40;99.90;;;;;;5088308;28;20453;-73
2023/01/22 13:42:51;;;;;;;27.47;25.27;;;4.50;99.90;;;;;;5087677;28;20448;-75
2023/01/22 13:45:24;;;;;;;28.70;26.70;;;4.40;99.90;;;;;;5087881;28;20801;-74
2023/01/22 13:47:55;;;;;;;28.87;26.60;;;4.30;99.90;;;;;;5087516;28;20461;-74
2023/01/22 13:50:24;;;;;;;29.00;26.87;;;4.20;99.90;;;;;;5087479;28;20450;-74
2023/01/22 13:52:51;;;;;;;28.70;26.20;;;4.10;99.90;;;;;;5087263;28;20790;-74
2023/01/22 13:55:21;;;;;;;28.60;26.47;;;4.20;99.90;;;;;;5087520;28;20454;-74
2023/01/22 13:57:50;;;;;;;28.60;26.30;;;4.20;99.90;;;;;;5087182;28;20442;-73
2023/01/22 14:00:28;;;;;;;28.70;26.10;;;4.20;99.90;;;;;;5087258;28;20458;-74
2023/01/22 14:02:55;;;;;;;25.57;23.73;;;4.10;99.90;;;;;;5088043;28;20457;-74
2023/01/22 14:05:24;;;;;;;28.57;25.80;;;4.00;99.90;;;;;;5087230;28;20469;-74
2023/01/22 14:08:02;;;;;;;27.63;25.50;;;4.00;99.90;;;;;;5087299;28;20454;-75
2023/01/22 14:10:30;;;;;;;27.00;24.90;;;4.00;99.90;;;;;;5087336;28;20952;-74
2023/01/22 14:13:01;;;;;;;26.97;25.17;;;4.10;99.90;;;;;;5086809;28;20482;-74
2023/01/22 14:15:28;;;;;;;26.03;24.07;;;4.10;99.90;;;;;;5087156;28;20450;-74
2023/01/22 14:18:08;;;;;;;26.73;24.47;;;4.10;99.90;;;;;;5087232;28;20446;-74
2023/01/22 14:20:35;;;;;;;25.60;23.73;;;4.10;99.90;;;;;;5086875;28;20475;-73
2023/01/22 14:23:01;;;;;;;24.07;22.30;;;4.10;99.90;;;;;;5087047;28;20451;-74
2023/01/22 14:25:29;;;;;;;24.90;23.20;;;4.20;99.90;;;;;;5086758;28;20454;-74
2023/01/22 14:27:59;;;;;;;23.27;21.67;;;4.20;99.90;;;;;;5087126;28;20450;-73
2023/01/22 14:30:26;;;;;;;24.50;22.50;;;4.00;99.90;;;;;;5087215;28;20859;-74
2023/01/22 14:32:52;;;;;;;24.80;23.10;;;4.00;99.90;;;;;;5086936;28;20498;-74
2023/01/22 14:35:21;;;;;;;23.73;22.13;;;4.00;99.90;;;;;;5086507;28;20459;-74
2023/01/22 14:37:48;;;;;;;23.27;21.67;;;3.80;99.90;;;;;;5087024;28;20447;-73
2023/01/22 14:40:17;;;;;;;25.00;23.20;;;3.70;99.90;;;;;;5087050;28;20450;-74
2023/01/22 14:42:46;;;;;;;24.50;22.70;;;3.80;99.90;;;;;;5082617;28;20446;-72
2023/01/22 14:45:14;;;;;;;24.97;23.20;;;3.80;99.90;;;;;;5062249;28;20447;-74
2023/01/22 14:47:41;;;;;;;24.10;22.37;;;3.90;99.90;;;;;;5066333;28;20454;-75
2023/01/22 14:50:09;;;;;;;25.40;23.30;;;3.90;99.90;;;;;;5070600;28;20447;-73
2023/01/22 14:52:36;;;;;;;23.90;22.10;;;3.80;99.90;;;;;;5070169;28;20523;-74
2023/01/22 14:55:04;;;;;;;23.20;21.50;;;3.80;99.90;;;;;;5070141;28;20466;-74
2023/01/22 14:57:30;;;;;;;23.20;21.50;;;3.80;99.90;;;;;;5070146;28;20462;-73
2023/01/22 14:59:58;;;;;;;23.37;21.73;;;3.70;99.90;;;;;;5070269;28;20930;-74
2023/01/22 15:02:25;;;;;;;25.40;22.83;;;3.80;99.90;;;;;;5070632;28;20447;-73
2023/01/22 15:04:52;;;;;;;25.13;22.97;;;3.60;99.90;;;;;;5070399;28;20447;-73
2023/01/22 15:07:18;;;;;;;22.50;20.90;;;3.60;99.90;;;;;;5070020;28;20827;-74
2023/01/22 15:09:45;;;;;;;23.40;21.70;;;3.60;99.90;;;;;;5070115;28;20459;-74
2023/01/22 15:12:12;;;;;;;25.20;23.43;;;3.70;99.90;;;;;;5069726;28;20486;-73
2023/01/22 15:14:38;;;;;;;23.07;21.27;;;3.80;99.90;;;;;;5070469;28;20447;-73
2023/01/22 15:17:06;;;;;;;22.27;20.77;;;3.90;99.90;;;;;;5070373;28;20949;-75
2023/01/22 15:19:33;;;;;;;24.87;22.93;;;3.80;99.90;;;;;;5069820;28;20440;-74
2023/01/22 15:22:02;;;;;;;22.93;21.13;;;3.70;99.90;;;;;;5070102;28;20561;-75
2023/01/22 15:24:28;;;;;;;23.90;22.10;;;3.70;99.90;;;;;;5069918;28;20451;-74
2023/01/22 15:26:55;;;;;;;22.57;20.93;;;3.80;99.90;;;;;;5070141;28;20474;-74
2023/01/22 15:29:22;;;;;;;23.07;21.37;;;3.80;99.90;;;;;;5069903;28;20482;-72
2023/01/22 15:31:48;;;;;;;24.33;22.40;;;3.80;99.90;;;;;;5069736;28;20486;-74
2023/01/22 15:34:17;;;;;;;23.20;21.50;;;3.80;99.90;;;;;;5069751;28;20547;-73
2023/01/22 15:36:43;;;;;;;24.47;22.50;;;3.60;99.90;;;;;;5070151;28;20463;-74
2023/01/22 15:39:10;;;;;;;22.37;20.67;;;3.50;99.90;;;;;;5070579;28;20447;-75
2023/01/22 15:41:37;;;;;;;22.90;21.10;;;3.50;99.90;;;;;;5070144;28;20458;-74
2023/01/22 15:44:05;;;;;;;23.00;21.40;;;3.50;99.90;;;;;;5069769;28;20443;-73
2023/01/22 15:46:33;;;;;;;22.60;21.07;;;3.50;99.90;;;;;;5069786;28;20865;-74
2023/01/22 15:49:01;;;;;;;23.73;21.97;;;3.40;99.90;;;;;;5069478;28;20462;-74
2023/01/22 15:51:29;;;;;;;22.50;20.93;;;3.50;99.90;;;;;;5069770;28;20482;-73
2023/01/22 15:53:58;;;;;;;23.60;21.90;;;3.40;99.90;;;;;;5069437;28;20977;-73
2023/01/22 15:56:27;;;;;;;24.10;22.27;;;3.40;99.90;;;;;;5069868;28;20443;-73
2023/01/22 15:58:54;;;;;;;23.60;21.90;;;3.40;99.90;;;;;;5069946;28;20439;-74
2023/01/22 16:01:22;;;;;;;23.50;21.80;;;3.50;99.90;;;;;;5069462;28;20443;-73
2023/01/22 16:03:49;;;;;;;21.93;20.43;;;3.50;99.90;;;;;;5069002;28;20530;-73
2023/01/22 16:06:17;;;;;;;22.40;20.67;;;3.40;99.90;;;;;;5068979;28;20761;-73
2023/01/22 16:08:46;;;;;;;23.87;21.97;;;3.40;99.90;;;;;;5068923;28;20443;-73
2023/01/22 16:11:14;;;;;;;21.20;19.70;;;3.50;99.90;;;;;;5069189;28;20475;-73
2023/01/22 16:13:41;;;;;;;22.40;20.60;;;3.30;99.90;;;;;;5068913;28;20953;-73
2023/01/22 16:16:15;;;;;;;21.83;20.33;;;3.30;99.90;;;;;;5069126;28;20470;-74
2023/01/22 16:18:41;;;;;;;21.43;19.90;;;3.30;99.90;;;;;;5069278;28;20451;-73
2023/01/22 16:21:09;;;;;;;22.17;20.37;;;3.30;99.90;;;;;;5069111;28;20447;-73
2023/01/22 16:23:38;;;;;;;21.67;20.17;;;3.30;99.90;;;;;;5068912;28;20443;-75
2023/01/22 16:26:08;;;;;;;22.03;20.43;;;3.20;99.90;;;;;;5068808;28;20451;-74
2023/01/22 16:28:35;;;;;;;22.20;20.60;;;3.30;99.90;;;;;;5068264;28;20465;-74
2023/01/22 16:31:03;;;;;;;21.77;20.10;;;3.20;99.90;;;;;;5068700;28;20459;-74
2023/01/22 16:33:32;;;;;;;22.43;20.83;;;3.30;99.90;;;;;;5067979;28;20487;-73
2023/01/22 16:36:00;;;;;;;22.50;20.80;;;3.20;99.90;;;;;;5068917;28;20458;-74
2023/01/22 16:38:27;;;;;;;22.50;20.90;;;3.30;99.90;;;;;;5068585;28;20470;-74
2023/01/22 16:40:53;;;;;;;23.57;21.77;;;3.20;99.90;;;;;;5068266;28;20494;-74
2023/01/22 16:43:21;;;;;;;23.00;21.10;;;3.10;99.90;;;;;;5068144;28;20451;-74
2023/01/22 16:45:48;;;;;;;23.23;21.73;;;3.20;99.90;;;;;;5068305;28;20649;-73
2023/01/22 16:48:15;;;;;;;25.60;23.60;;;3.20;99.90;;;;;;5068439;28;20474;-76
2023/01/22 16:50:41;;;;;;;21.80;20.33;;;3.10;99.90;;;;;;5068114;28;20474;-74
2023/01/22 16:53:08;;;;;;;22.57;20.97;;;3.10;99.90;;;;;;5068368;28;20493;-75
2023/01/22 16:55:35;;;;;;;23.37;21.57;;;3.20;99.90;;;;;;5068160;28;20458;-74
2023/01/22 16:58:01;;;;;;;24.83;22.73;;;3.20;99.90;;;;;;5068220;28;20455;-74
2023/01/22 17:00:29;;;;;;;22.70;20.90;;;3.20;99.90;;;;;;5067922;28;20534;-73
2023/01/22 17:02:58;;;;;;;23.80;22.00;;;3.20;99.90;;;;;;5068323;28;20451;-73
2023/01/22 17:05:25;;;;;;;21.43;19.80;;;3.20;99.90;;;;;;5067868;28;21005;-75
2023/01/22 17:07:51;;;;;;;20.30;19.00;;;3.20;99.90;;;;;;5068277;28;20451;-74
2023/01/22 17:10:18;;;;;;;21.57;20.07;;;3.20;99.90;;;;;;5067493;28;20447;-74
2023/01/22 17:12:45;;;;;;;21.37;19.80;;;3.20;99.90;;;;;;5067565;28;20582;-73
2023/01/22 17:15:12;;;;;;;22.70;21.20;;;3.20;99.90;;;;;;5068351;28;20788;-74
2023/01/22 17:17:40;;;;;;;21.57;20.17;;;3.30;99.90;;;;;;5068344;28;20471;-73
2023/01/22 17:20:08;;;;;;;22.37;20.87;;;3.30;99.90;;;;;;5067803;28;20463;-74
2023/01/22 17:22:34;;;;;;;23.40;21.70;;;3.30;99.90;;;;;;5067566;28;21092;-75
2023/01/22 17:25:01;;;;;;;22.50;20.90;;;3.30;99.90;;;;;;5067878;28;20978;-73
2023/01/22 17:27:30;;;;;;;23.20;21.50;;;3.40;99.90;;;;;;5067977;28;20454;-76
2023/01/22 17:29:57;;;;;;;23.83;22.20;;;3.40;99.90;;;;;;5067737;28;20454;-75
2023/01/22 17:32:25;;;;;;;22.73;20.90;;;3.40;99.90;;;;;;5068380;28;20483;-75
2023/01/22 17:34:53;;;;;;;23.43;21.80;;;3.40;99.90;;;;;;5067741;28;20495;-74
2023/01/22 17:37:20;;;;;;;23.30;21.60;;;3.40;99.90;;;;;;5067416;28;20832;-73
2023/01/22 17:39:49;;;;;;;26.23;24.20;;;3.40;99.90;;;;;;5067842;28;21058;-74
2023/01/22 17:42:16;;;;;;;25.33;23.53;;;3.30;99.90;;;;;;5067274;28;20458;-74
2023/01/22 17:44:43;;;;;;;23.30;21.40;;;3.30;99.90;;;;;;5067615;28;20546;-73
2023/01/22 17:47:10;;;;;;;23.53;21.80;;;3.40;99.90;;;;;;5067436;28;20459;-74
2023/01/22 17:49:37;;;;;;;24.93;22.93;;;3.40;99.90;;;;;;5067285;28;20447;-73
2023/01/22 17:52:07;;;;;;;22.40;20.70;;;3.40;99.90;;;;;;5066715;28;20479;-74
2023/01/22 17:54:34;;;;;;;25.77;23.77;;;3.40;99.90;;;;;;5067038;28;20481;-74
2023/01/22 17:57:01;;;;;;;23.23;21.37;;;3.40;99.90;;;;;;5067078;28;20787;-74
2023/01/22 17:59:28;;;;;;;23.83;22.07;;;3.40;99.90;;;;;;5066782;28;20447;-73
